sensor_id;sensor_type;location;lat;lon;timestamp;P1;durP1;ratioP1;P2;durP2;ratioP2
22435;SDS011;11385;50.822;4.324;2022-08-19T00:01:36;15.63;;;14.15;;
22435;SDS011;11385;50.822;4.324;2022-08-19T00:04:06;20.08;;;17.70;;
22435;SDS011;11385;50.822;4.324;2022-08-19T00:06:35;22.50;;;19.77;;
22435;SDS011;11385;50.822;4.324;2022-08-19T00:09:04;22.32;;;20.10;;
22435;SDS011;11385;50.822;4.324;2022-08-19T00:11:33;23.25;;;20.30;;
22435;SDS011;11385;50.822;4.324;2022-08-19T00:14:03;24.18;;;21.70;;
22435;SDS011;11385;50.822;4.324;2022-08-19T00:16:31;23.55;;;21.05;;
22435;SDS011;11385;50.822;4.324;2022-08-19T00:18:58;26.07;;;22.40;;
22435;SDS011;11385;50.822;4.324;2022-08-19T00:21:25;26.87;;;24.02;;
22435;SDS011;11385;50.822;4.324;2022-08-19T00:23:53;28.73;;;25.25;;
22435;SDS011;11385;50.822;4.324;2022-08-19T00:26:23;27.73;;;24.43;;
22435;SDS011;11385;50.822;4.324;2022-08-19T00:28:51;32.23;;;27.10;;
22435;SDS011;11385;50.822;4.324;2022-08-19T00:31:18;32.90;;;26.40;;
22435;SDS011;11385;50.822;4.324;2022-08-19T00:33:46;39.05;;;30.48;;
22435;SDS011;11385;50.822;4.324;2022-08-19T00:36:14;33.92;;;29.37;;
22435;SDS011;11385;50.822;4.324;2022-08-19T00:38:41;39.58;;;34.03;;
22435;SDS011;11385;50.822;4.324;2022-08-19T00:41:10;39.53;;;32.63;;
22435;SDS011;11385;50.822;4.324;2022-08-19T00:43:40;38.40;;;32.25;;
22435;SDS011;11385;50.822;4.324;2022-08-19T00:46:07;39.80;;;33.28;;
22435;SDS011;11385;50.822;4.324;2022-08-19T00:48:34;40.92;;;34.20;;
22435;SDS011;11385;50.822;4.324;2022-08-19T00:51:02;39.58;;;32.50;;
22435;SDS011;11385;50.822;4.324;2022-08-19T00:53:31;40.60;;;33.53;;
22435;SDS011;11385;50.822;4.324;2022-08-19T00:55:59;38.23;;;32.88;;
22435;SDS011;11385;50.822;4.324;2022-08-19T00:58:31;36.03;;;31.70;;
22435;SDS011;11385;50.822;4.324;2022-08-19T01:00:59;37.65;;;31.23;;
22435;SDS011;11385;50.822;4.324;2022-08-19T01:03:26;45.12;;;34.70;;
22435;SDS011;11385;50.822;4.324;2022-08-19T01:05:53;37.98;;;33.83;;
22435;SDS011;11385;50.822;4.324;2022-08-19T01:08:21;36.03;;;31.12;;
22435;SDS011;11385;50.822;4.324;2022-08-19T01:10:50;33.88;;;30.00;;
22435;SDS011;11385;50.822;4.324;2022-08-19T01:13:23;37.95;;;32.73;;
22435;SDS011;11385;50.822;4.324;2022-08-19T01:15:55;37.50;;;33.48;;
22435;SDS011;11385;50.822;4.324;2022-08-19T01:18:25;36.65;;;31.60;;
22435;SDS011;11385;50.822;4.324;2022-08-19T01:20:54;35.75;;;28.07;;
22435;SDS011;11385;50.822;4.324;2022-08-19T01:23:24;35.90;;;30.63;;
22435;SDS011;11385;50.822;4.324;2022-08-19T01:25:53;32.55;;;28.57;;
22435;SDS011;11385;50.822;4.324;2022-08-19T01:28:22;34.00;;;28.57;;
22435;SDS011;11385;50.822;4.324;2022-08-19T01:30:51;35.25;;;29.07;;
22435;SDS011;11385;50.822;4.324;2022-08-19T01:33:19;32.13;;;28.45;;
22435;SDS011;11385;50.822;4.324;2022-08-19T01:35:47;36.63;;;30.35;;
22435;SDS011;11385;50.822;4.324;2022-08-19T01:38:20;36.58;;;30.52;;
22435;SDS011;11385;50.822;4.324;2022-08-19T01:40:50;36.50;;;31.40;;
22435;SDS011;11385;50.822;4.324;2022-08-19T01:43:17;34.78;;;29.00;;
22435;SDS011;11385;50.822;4.324;2022-08-19T01:45:44;31.10;;;27.82;;
22435;SDS011;11385;50.822;4.324;2022-08-19T01:48:12;35.90;;;28.95;;
22435;SDS011;11385;50.822;4.324;2022-08-19T01:50:39;34.25;;;29.32;;
22435;SDS011;11385;50.822;4.324;2022-08-19T01:53:08;32.53;;;28.98;;
22435;SDS011;11385;50.822;4.324;2022-08-19T01:55:38;34.80;;;29.80;;
22435;SDS011;11385;50.822;4.324;2022-08-19T01:58:13;30.70;;;27.22;;
22435;SDS011;11385;50.822;4.324;2022-08-19T02:00:42;29.02;;;25.70;;
22435;SDS011;11385;50.822;4.324;2022-08-19T02:03:10;29.52;;;26.27;;
22435;SDS011;11385;50.822;4.324;2022-08-19T02:05:38;31.07;;;27.05;;
22435;SDS011;11385;50.822;4.324;2022-08-19T02:08:06;31.80;;;28.40;;
22435;SDS011;11385;50.822;4.324;2022-08-19T02:10:37;35.63;;;30.85;;
22435;SDS011;11385;50.822;4.324;2022-08-19T02:13:07;34.10;;;30.12;;
22435;SDS011;11385;50.822;4.324;2022-08-19T02:15:34;36.58;;;30.75;;
22435;SDS011;11385;50.822;4.324;2022-08-19T02:18:01;36.70;;;32.70;;
22435;SDS011;11385;50.822;4.324;2022-08-19T02:20:28;35.00;;;31.10;;
22435;SDS011;11385;50.822;4.324;2022-08-19T02:22:55;37.40;;;30.08;;
22435;SDS011;11385;50.822;4.324;2022-08-19T02:25:22;32.33;;;28.77;;
22435;SDS011;11385;50.822;4.324;2022-08-19T02:27:49;38.92;;;30.08;;
22435;SDS011;11385;50.822;4.324;2022-08-19T02:30:15;33.02;;;28.10;;
22435;SDS011;11385;50.822;4.324;2022-08-19T02:32:42;34.30;;;30.02;;
22435;SDS011;11385;50.822;4.324;2022-08-19T02:35:09;33.85;;;28.05;;
22435;SDS011;11385;50.822;4.324;2022-08-19T02:37:36;33.45;;;28.55;;
22435;SDS011;11385;50.822;4.324;2022-08-19T02:40:09;34.40;;;27.82;;
22435;SDS011;11385;50.822;4.324;2022-08-19T02:42:36;34.30;;;28.32;;
22435;SDS011;11385;50.822;4.324;2022-08-19T02:45:02;34.20;;;28.23;;
22435;SDS011;11385;50.822;4.324;2022-08-19T02:47:31;34.08;;;27.45;;
22435;SDS011;11385;50.822;4.324;2022-08-19T02:49:58;33.80;;;27.15;;
22435;SDS011;11385;50.822;4.324;2022-08-19T02:52:27;34.78;;;27.75;;
22435;SDS011;11385;50.822;4.324;2022-08-19T02:54:54;35.50;;;27.15;;
22435;SDS011;11385;50.822;4.324;2022-08-19T02:57:23;33.60;;;26.68;;
22435;SDS011;11385;50.822;4.324;2022-08-19T02:59:50;33.28;;;27.35;;
22435;SDS011;11385;50.822;4.324;2022-08-19T03:02:16;31.05;;;25.77;;
22435;SDS011;11385;50.822;4.324;2022-08-19T03:04:43;30.25;;;25.70;;
22435;SDS011;11385;50.822;4.324;2022-08-19T03:07:12;35.75;;;25.12;;
22435;SDS011;11385;50.822;4.324;2022-08-19T03:09:40;28.30;;;24.60;;
22435;SDS011;11385;50.822;4.324;2022-08-19T03:12:08;31.85;;;26.55;;
22435;SDS011;11385;50.822;4.324;2022-08-19T03:14:35;31.87;;;24.52;;
22435;SDS011;11385;50.822;4.324;2022-08-19T03:17:02;28.62;;;24.75;;
22435;SDS011;11385;50.822;4.324;2022-08-19T03:19:30;34.90;;;26.82;;
22435;SDS011;11385;50.822;4.324;2022-08-19T03:21:57;33.15;;;24.10;;
22435;SDS011;11385;50.822;4.324;2022-08-19T03:24:24;29.80;;;23.85;;
22435;SDS011;11385;50.822;4.324;2022-08-19T03:26:53;30.90;;;25.15;;
22435;SDS011;11385;50.822;4.324;2022-08-19T03:29:23;31.25;;;23.18;;
22435;SDS011;11385;50.822;4.324;2022-08-19T03:31:51;31.57;;;23.80;;
22435;SDS011;11385;50.822;4.324;2022-08-19T03:34:21;29.65;;;23.22;;
22435;SDS011;11385;50.822;4.324;2022-08-19T03:36:51;28.23;;;22.15;;
22435;SDS011;11385;50.822;4.324;2022-08-19T03:39:19;30.82;;;23.38;;
22435;SDS011;11385;50.822;4.324;2022-08-19T03:41:48;30.00;;;22.50;;
22435;SDS011;11385;50.822;4.324;2022-08-19T03:44:18;30.82;;;22.75;;
22435;SDS011;11385;50.822;4.324;2022-08-19T03:46:49;28.40;;;22.67;;
22435;SDS011;11385;50.822;4.324;2022-08-19T03:49:19;31.57;;;24.63;;
22435;SDS011;11385;50.822;4.324;2022-08-19T03:51:47;39.85;;;30.48;;
22435;SDS011;11385;50.822;4.324;2022-08-19T03:54:17;32.67;;;25.75;;
22435;SDS011;11385;50.822;4.324;2022-08-19T03:56:46;31.73;;;24.47;;
22435;SDS011;11385;50.822;4.324;2022-08-19T03:59:16;33.35;;;25.23;;
22435;SDS011;11385;50.822;4.324;2022-08-19T04:01:45;31.35;;;25.20;;
22435;SDS011;11385;50.822;4.324;2022-08-19T04:04:12;31.45;;;25.30;;
22435;SDS011;11385;50.822;4.324;2022-08-19T04:06:39;33.70;;;25.12;;
22435;SDS011;11385;50.822;4.324;2022-08-19T04:09:07;29.23;;;23.40;;
22435;SDS011;11385;50.822;4.324;2022-08-19T04:11:38;34.13;;;25.27;;
22435;SDS011;11385;50.822;4.324;2022-08-19T04:14:08;35.70;;;24.85;;
22435;SDS011;11385;50.822;4.324;2022-08-19T04:16:36;33.28;;;24.15;;
22435;SDS011;11385;50.822;4.324;2022-08-19T04:19:03;32.48;;;24.63;;
22435;SDS011;11385;50.822;4.324;2022-08-19T04:21:31;32.38;;;24.45;;
22435;SDS011;11385;50.822;4.324;2022-08-19T04:23:58;31.40;;;23.87;;
22435;SDS011;11385;50.822;4.324;2022-08-19T04:26:27;32.33;;;23.62;;
22435;SDS011;11385;50.822;4.324;2022-08-19T04:28:58;28.60;;;20.77;;
22435;SDS011;11385;50.822;4.324;2022-08-19T04:31:27;32.67;;;23.15;;
22435;SDS011;11385;50.822;4.324;2022-08-19T04:33:55;28.70;;;21.10;;
22435;SDS011;11385;50.822;4.324;2022-08-19T04:36:26;27.35;;;19.90;;
22435;SDS011;11385;50.822;4.324;2022-08-19T04:38:55;28.62;;;21.57;;
22435;SDS011;11385;50.822;4.324;2022-08-19T04:41:23;30.12;;;19.50;;
22435;SDS011;11385;50.822;4.324;2022-08-19T04:43:55;32.78;;;21.57;;
22435;SDS011;11385;50.822;4.324;2022-08-19T04:46:22;30.92;;;22.30;;
22435;SDS011;11385;50.822;4.324;2022-08-19T04:48:49;30.57;;;20.82;;
22435;SDS011;11385;50.822;4.324;2022-08-19T04:51:15;27.22;;;20.72;;
22435;SDS011;11385;50.822;4.324;2022-08-19T04:53:42;30.23;;;20.92;;
22435;SDS011;11385;50.822;4.324;2022-08-19T04:56:10;29.75;;;22.62;;
22435;SDS011;11385;50.822;4.324;2022-08-19T04:58:38;29.50;;;20.80;;
22435;SDS011;11385;50.822;4.324;2022-08-19T05:01:08;31.35;;;21.80;;
22435;SDS011;11385;50.822;4.324;2022-08-19T05:03:52;31.85;;;22.48;;
22435;SDS011;11385;50.822;4.324;2022-08-19T05:06:20;32.88;;;22.13;;
22435;SDS011;11385;50.822;4.324;2022-08-19T05:08:47;27.77;;;21.25;;
22435;SDS011;11385;50.822;4.324;2022-08-19T05:11:16;31.82;;;20.80;;
22435;SDS011;11385;50.822;4.324;2022-08-19T05:13:52;28.17;;;21.07;;
22435;SDS011;11385;50.822;4.324;2022-08-19T05:16:20;31.17;;;20.15;;
22435;SDS011;11385;50.822;4.324;2022-08-19T05:18:48;30.95;;;19.85;;
22435;SDS011;11385;50.822;4.324;2022-08-19T05:21:21;31.85;;;19.50;;
22435;SDS011;11385;50.822;4.324;2022-08-19T05:23:53;28.40;;;20.72;;
22435;SDS011;11385;50.822;4.324;2022-08-19T05:26:20;30.35;;;21.65;;
22435;SDS011;11385;50.822;4.324;2022-08-19T05:28:47;35.28;;;22.93;;
22435;SDS011;11385;50.822;4.324;2022-08-19T05:31:13;33.30;;;22.75;;
22435;SDS011;11385;50.822;4.324;2022-08-19T05:33:40;30.27;;;22.75;;
22435;SDS011;11385;50.822;4.324;2022-08-19T05:36:07;30.90;;;23.67;;
22435;SDS011;11385;50.822;4.324;2022-08-19T05:38:34;29.95;;;22.93;;
22435;SDS011;11385;50.822;4.324;2022-08-19T05:41:06;32.35;;;22.32;;
22435;SDS011;11385;50.822;4.324;2022-08-19T05:43:34;31.30;;;22.20;;
22435;SDS011;11385;50.822;4.324;2022-08-19T05:46:01;33.88;;;22.17;;
22435;SDS011;11385;50.822;4.324;2022-08-19T05:48:27;31.30;;;20.72;;
22435;SDS011;11385;50.822;4.324;2022-08-19T05:50:54;31.60;;;20.02;;
22435;SDS011;11385;50.822;4.324;2022-08-19T05:53:22;29.02;;;20.27;;
22435;SDS011;11385;50.822;4.324;2022-08-19T05:55:49;24.35;;;18.52;;
22435;SDS011;11385;50.822;4.324;2022-08-19T05:58:15;27.05;;;17.65;;
22435;SDS011;11385;50.822;4.324;2022-08-19T06:00:43;28.23;;;17.87;;
22435;SDS011;11385;50.822;4.324;2022-08-19T06:03:10;25.08;;;16.10;;
22435;SDS011;11385;50.822;4.324;2022-08-19T06:05:37;20.12;;;14.50;;
22435;SDS011;11385;50.822;4.324;2022-08-19T06:08:04;20.95;;;14.60;;
22435;SDS011;11385;50.822;4.324;2022-08-19T06:10:32;21.50;;;13.30;;
22435;SDS011;11385;50.822;4.324;2022-08-19T06:12:59;17.67;;;12.65;;
22435;SDS011;11385;50.822;4.324;2022-08-19T06:15:25;19.17;;;12.23;;
22435;SDS011;11385;50.822;4.324;2022-08-19T06:17:53;17.35;;;12.55;;
22435;SDS011;11385;50.822;4.324;2022-08-19T06:20:20;16.48;;;11.80;;
22435;SDS011;11385;50.822;4.324;2022-08-19T06:22:47;20.25;;;11.45;;
22435;SDS011;11385;50.822;4.324;2022-08-19T06:25:17;17.60;;;10.38;;
22435;SDS011;11385;50.822;4.324;2022-08-19T06:27:44;20.15;;;10.98;;
22435;SDS011;11385;50.822;4.324;2022-08-19T06:30:11;15.35;;;9.78;;
22435;SDS011;11385;50.822;4.324;2022-08-19T06:32:38;20.97;;;9.83;;
22435;SDS011;11385;50.822;4.324;2022-08-19T06:35:05;15.32;;;10.18;;
22435;SDS011;11385;50.822;4.324;2022-08-19T06:37:33;14.90;;;9.30;;
22435;SDS011;11385;50.822;4.324;2022-08-19T06:39:59;14.28;;;9.10;;
22435;SDS011;11385;50.822;4.324;2022-08-19T06:42:26;16.42;;;9.65;;
22435;SDS011;11385;50.822;4.324;2022-08-19T06:44:53;17.17;;;9.60;;
22435;SDS011;11385;50.822;4.324;2022-08-19T06:47:21;15.28;;;9.78;;
22435;SDS011;11385;50.822;4.324;2022-08-19T06:49:48;18.10;;;9.75;;
22435;SDS011;11385;50.822;4.324;2022-08-19T06:52:14;17.95;;;9.80;;
22435;SDS011;11385;50.822;4.324;2022-08-19T06:54:41;15.05;;;9.55;;
22435;SDS011;11385;50.822;4.324;2022-08-19T06:57:08;15.30;;;9.43;;
22435;SDS011;11385;50.822;4.324;2022-08-19T06:59:37;16.55;;;9.65;;
22435;SDS011;11385;50.822;4.324;2022-08-19T07:02:04;16.00;;;9.30;;
22435;SDS011;11385;50.822;4.324;2022-08-19T07:04:32;15.35;;;9.45;;
22435;SDS011;11385;50.822;4.324;2022-08-19T07:07:02;19.48;;;9.88;;
22435;SDS011;11385;50.822;4.324;2022-08-19T07:09:34;16.45;;;9.38;;
22435;SDS011;11385;50.822;4.324;2022-08-19T07:12:05;15.60;;;9.88;;
22435;SDS011;11385;50.822;4.324;2022-08-19T07:14:34;15.63;;;9.88;;
22435;SDS011;11385;50.822;4.324;2022-08-19T07:17:04;15.30;;;9.93;;
22435;SDS011;11385;50.822;4.324;2022-08-19T07:19:33;19.97;;;9.63;;
22435;SDS011;11385;50.822;4.324;2022-08-19T07:22:02;20.08;;;9.75;;
22435;SDS011;11385;50.822;4.324;2022-08-19T07:24:30;15.83;;;8.53;;
22435;SDS011;11385;50.822;4.324;2022-08-19T07:26:59;14.90;;;8.80;;
22435;SDS011;11385;50.822;4.324;2022-08-19T07:29:29;14.68;;;8.80;;
22435;SDS011;11385;50.822;4.324;2022-08-19T07:31:59;14.93;;;9.33;;
22435;SDS011;11385;50.822;4.324;2022-08-19T07:34:28;12.10;;;8.23;;
22435;SDS011;11385;50.822;4.324;2022-08-19T07:36:56;13.88;;;8.08;;
22435;SDS011;11385;50.822;4.324;2022-08-19T07:39:24;14.33;;;7.75;;
22435;SDS011;11385;50.822;4.324;2022-08-19T07:41:53;23.30;;;16.50;;
22435;SDS011;11385;50.822;4.324;2022-08-19T07:44:20;13.58;;;8.88;;
22435;SDS011;11385;50.822;4.324;2022-08-19T07:46:50;10.45;;;8.38;;
22435;SDS011;11385;50.822;4.324;2022-08-19T07:49:19;16.77;;;10.60;;
22435;SDS011;11385;50.822;4.324;2022-08-19T07:51:47;14.07;;;8.58;;
22435;SDS011;11385;50.822;4.324;2022-08-19T07:54:18;13.90;;;10.38;;
22435;SDS011;11385;50.822;4.324;2022-08-19T07:56:46;12.53;;;9.03;;
22435;SDS011;11385;50.822;4.324;2022-08-19T07:59:12;12.68;;;7.50;;
22435;SDS011;11385;50.822;4.324;2022-08-19T08:01:39;11.57;;;7.25;;
22435;SDS011;11385;50.822;4.324;2022-08-19T08:04:06;12.82;;;6.70;;
22435;SDS011;11385;50.822;4.324;2022-08-19T08:06:38;16.93;;;9.08;;
22435;SDS011;11385;50.822;4.324;2022-08-19T08:09:11;14.93;;;9.70;;
22435;SDS011;11385;50.822;4.324;2022-08-19T08:11:46;13.53;;;7.53;;
22435;SDS011;11385;50.822;4.324;2022-08-19T08:14:16;16.30;;;9.50;;
22435;SDS011;11385;50.822;4.324;2022-08-19T08:16:45;12.28;;;7.53;;
22435;SDS011;11385;50.822;4.324;2022-08-19T08:19:12;12.68;;;6.97;;
22435;SDS011;11385;50.822;4.324;2022-08-19T08:21:40;10.32;;;7.37;;
22435;SDS011;11385;50.822;4.324;2022-08-19T08:24:08;11.48;;;7.00;;
22435;SDS011;11385;50.822;4.324;2022-08-19T08:26:35;11.53;;;6.85;;
22435;SDS011;11385;50.822;4.324;2022-08-19T08:29:02;12.98;;;7.35;;
22435;SDS011;11385;50.822;4.324;2022-08-19T08:31:29;8.85;;;6.12;;
22435;SDS011;11385;50.822;4.324;2022-08-19T08:33:56;10.45;;;6.37;;
22435;SDS011;11385;50.822;4.324;2022-08-19T08:36:23;8.55;;;5.47;;
22435;SDS011;11385;50.822;4.324;2022-08-19T08:38:51;10.85;;;5.80;;
22435;SDS011;11385;50.822;4.324;2022-08-19T08:41:35;12.10;;;5.92;;
22435;SDS011;11385;50.822;4.324;2022-08-19T08:44:06;9.95;;;5.80;;
22435;SDS011;11385;50.822;4.324;2022-08-19T08:46:37;10.85;;;5.70;;
22435;SDS011;11385;50.822;4.324;2022-08-19T08:49:16;10.65;;;5.75;;
22435;SDS011;11385;50.822;4.324;2022-08-19T08:51:59;10.70;;;5.50;;
22435;SDS011;11385;50.822;4.324;2022-08-19T08:54:30;9.48;;;5.95;;
22435;SDS011;11385;50.822;4.324;2022-08-19T08:57:02;11.65;;;6.10;;
22435;SDS011;11385;50.822;4.324;2022-08-19T08:59:34;8.30;;;5.40;;
22435;SDS011;11385;50.822;4.324;2022-08-19T09:04:29;8.88;;;5.15;;
22435;SDS011;11385;50.822;4.324;2022-08-19T09:09:38;8.70;;;5.47;;
22435;SDS011;11385;50.822;4.324;2022-08-19T09:12:13;7.80;;;4.95;;
22435;SDS011;11385;50.822;4.324;2022-08-19T09:14:48;7.37;;;4.67;;
22435;SDS011;11385;50.822;4.324;2022-08-19T09:17:21;10.82;;;5.62;;
22435;SDS011;11385;50.822;4.324;2022-08-19T09:19:54;7.85;;;5.05;;
22435;SDS011;11385;50.822;4.324;2022-08-19T09:22:23;9.23;;;6.60;;
22435;SDS011;11385;50.822;4.324;2022-08-19T09:24:52;17.95;;;13.88;;
22435;SDS011;11385;50.822;4.324;2022-08-19T09:27:20;10.68;;;5.92;;
22435;SDS011;11385;50.822;4.324;2022-08-19T09:29:49;8.10;;;6.08;;
22435;SDS011;11385;50.822;4.324;2022-08-19T09:32:17;10.25;;;5.90;;
22435;SDS011;11385;50.822;4.324;2022-08-19T09:34:44;8.78;;;5.42;;
22435;SDS011;11385;50.822;4.324;2022-08-19T09:37:10;14.38;;;5.75;;
22435;SDS011;11385;50.822;4.324;2022-08-19T09:39:38;8.38;;;5.90;;
22435;SDS011;11385;50.822;4.324;2022-08-19T09:42:06;6.87;;;5.10;;
22435;SDS011;11385;50.822;4.324;2022-08-19T09:44:39;9.03;;;5.70;;
22435;SDS011;11385;50.822;4.324;2022-08-19T09:47:07;7.12;;;5.12;;
22435;SDS011;11385;50.822;4.324;2022-08-19T09:49:35;7.55;;;4.50;;
22435;SDS011;11385;50.822;4.324;2022-08-19T09:52:03;9.55;;;4.72;;
22435;SDS011;11385;50.822;4.324;2022-08-19T09:54:30;6.95;;;4.72;;
22435;SDS011;11385;50.822;4.324;2022-08-19T09:56:57;11.00;;;5.60;;
22435;SDS011;11385;50.822;4.324;2022-08-19T09:59:26;13.22;;;9.50;;
22435;SDS011;11385;50.822;4.324;2022-08-19T10:01:53;6.37;;;4.30;;
22435;SDS011;11385;50.822;4.324;2022-08-19T10:04:20;7.60;;;5.25;;
22435;SDS011;11385;50.822;4.324;2022-08-19T10:06:47;7.60;;;4.90;;
22435;SDS011;11385;50.822;4.324;2022-08-19T10:09:17;8.10;;;5.28;;
22435;SDS011;11385;50.822;4.324;2022-08-19T10:11:44;8.90;;;5.80;;
22435;SDS011;11385;50.822;4.324;2022-08-19T10:14:14;9.60;;;5.50;;
22435;SDS011;11385;50.822;4.324;2022-08-19T10:16:42;8.13;;;5.37;;
22435;SDS011;11385;50.822;4.324;2022-08-19T10:19:09;9.30;;;6.28;;
22435;SDS011;11385;50.822;4.324;2022-08-19T10:21:36;8.13;;;6.35;;
22435;SDS011;11385;50.822;4.324;2022-08-19T10:24:04;10.63;;;6.65;;
22435;SDS011;11385;50.822;4.324;2022-08-19T10:26:33;8.88;;;7.05;;
22435;SDS011;11385;50.822;4.324;2022-08-19T10:29:03;12.80;;;7.65;;
22435;SDS011;11385;50.822;4.324;2022-08-19T10:31:32;13.15;;;7.78;;
22435;SDS011;11385;50.822;4.324;2022-08-19T10:34:00;13.32;;;7.40;;
22435;SDS011;11385;50.822;4.324;2022-08-19T10:36:29;10.13;;;7.30;;
22435;SDS011;11385;50.822;4.324;2022-08-19T10:39:01;11.97;;;6.90;;
22435;SDS011;11385;50.822;4.324;2022-08-19T10:41:35;9.37;;;7.03;;
22435;SDS011;11385;50.822;4.324;2022-08-19T10:44:03;11.17;;;7.93;;
22435;SDS011;11385;50.822;4.324;2022-08-19T10:46:32;11.23;;;8.30;;
22435;SDS011;11385;50.822;4.324;2022-08-19T10:49:02;11.70;;;7.78;;
22435;SDS011;11385;50.822;4.324;2022-08-19T10:51:30;11.68;;;7.87;;
22435;SDS011;11385;50.822;4.324;2022-08-19T10:54:04;11.78;;;8.25;;
22435;SDS011;11385;50.822;4.324;2022-08-19T10:56:31;9.90;;;7.62;;
22435;SDS011;11385;50.822;4.324;2022-08-19T10:59:04;10.45;;;7.53;;
22435;SDS011;11385;50.822;4.324;2022-08-19T11:01:31;7.60;;;6.53;;
22435;SDS011;11385;50.822;4.324;2022-08-19T11:04:01;9.05;;;7.12;;
22435;SDS011;11385;50.822;4.324;2022-08-19T11:06:30;8.30;;;6.10;;
22435;SDS011;11385;50.822;4.324;2022-08-19T11:08:58;8.58;;;6.37;;
22435;SDS011;11385;50.822;4.324;2022-08-19T11:11:25;10.48;;;7.35;;
22435;SDS011;11385;50.822;4.324;2022-08-19T11:13:53;14.68;;;8.88;;
22435;SDS011;11385;50.822;4.324;2022-08-19T11:16:21;11.35;;;9.30;;
22435;SDS011;11385;50.822;4.324;2022-08-19T11:18:53;12.98;;;9.90;;
22435;SDS011;11385;50.822;4.324;2022-08-19T11:23:53;10.95;;;9.45;;
22435;SDS011;11385;50.822;4.324;2022-08-19T11:26:22;12.43;;;8.95;;
22435;SDS011;11385;50.822;4.324;2022-08-19T11:28:50;10.38;;;8.18;;
22435;SDS011;11385;50.822;4.324;2022-08-19T11:31:19;12.73;;;8.55;;
22435;SDS011;11385;50.822;4.324;2022-08-19T11:33:47;11.70;;;8.53;;
22435;SDS011;11385;50.822;4.324;2022-08-19T11:36:18;11.65;;;8.10;;
22435;SDS011;11385;50.822;4.324;2022-08-19T11:38:46;10.32;;;8.63;;
22435;SDS011;11385;50.822;4.324;2022-08-19T11:41:15;11.00;;;7.97;;
22435;SDS011;11385;50.822;4.324;2022-08-19T11:43:43;10.28;;;7.87;;
22435;SDS011;11385;50.822;4.324;2022-08-19T11:46:11;9.73;;;7.95;;
22435;SDS011;11385;50.822;4.324;2022-08-19T11:48:39;9.75;;;7.05;;
22435;SDS011;11385;50.822;4.324;2022-08-19T11:51:07;9.70;;;6.92;;
22435;SDS011;11385;50.822;4.324;2022-08-19T11:53:36;11.03;;;6.33;;
22435;SDS011;11385;50.822;4.324;2022-08-19T11:56:04;9.40;;;6.30;;
22435;SDS011;11385;50.822;4.324;2022-08-19T11:58:32;7.20;;;5.47;;
22435;SDS011;11385;50.822;4.324;2022-08-19T12:00:59;7.10;;;6.08;;
22435;SDS011;11385;50.822;4.324;2022-08-19T12:03:26;6.60;;;5.47;;
22435;SDS011;11385;50.822;4.324;2022-08-19T12:05:53;9.00;;;5.42;;
22435;SDS011;11385;50.822;4.324;2022-08-19T12:08:20;8.73;;;5.30;;
22435;SDS011;11385;50.822;4.324;2022-08-19T12:10:46;7.53;;;4.62;;
22435;SDS011;11385;50.822;4.324;2022-08-19T12:13:13;6.05;;;4.35;;
22435;SDS011;11385;50.822;4.324;2022-08-19T12:15:42;7.47;;;4.75;;
22435;SDS011;11385;50.822;4.324;2022-08-19T12:18:10;5.35;;;3.95;;
22435;SDS011;11385;50.822;4.324;2022-08-19T12:20:39;7.30;;;4.15;;
22435;SDS011;11385;50.822;4.324;2022-08-19T12:23:08;5.72;;;4.62;;
22435;SDS011;11385;50.822;4.324;2022-08-19T12:25:36;7.22;;;4.25;;
22435;SDS011;11385;50.822;4.324;2022-08-19T12:28:05;5.40;;;3.85;;
22435;SDS011;11385;50.822;4.324;2022-08-19T12:30:32;4.70;;;3.62;;
22435;SDS011;11385;50.822;4.324;2022-08-19T12:32:59;6.12;;;3.47;;
22435;SDS011;11385;50.822;4.324;2022-08-19T12:35:25;5.05;;;2.90;;
22435;SDS011;11385;50.822;4.324;2022-08-19T12:37:53;5.05;;;2.77;;
22435;SDS011;11385;50.822;4.324;2022-08-19T12:40:20;5.80;;;2.50;;
22435;SDS011;11385;50.822;4.324;2022-08-19T12:42:47;7.33;;;2.30;;
22435;SDS011;11385;50.822;4.324;2022-08-19T12:45:14;4.17;;;2.45;;
22435;SDS011;11385;50.822;4.324;2022-08-19T12:47:41;4.40;;;2.27;;
22435;SDS011;11385;50.822;4.324;2022-08-19T12:50:08;6.67;;;2.52;;
22435;SDS011;11385;50.822;4.324;2022-08-19T12:52:36;5.15;;;2.25;;
22435;SDS011;11385;50.822;4.324;2022-08-19T12:55:05;11.75;;;2.20;;
22435;SDS011;11385;50.822;4.324;2022-08-19T12:57:32;4.78;;;2.37;;
22435;SDS011;11385;50.822;4.324;2022-08-19T13:00:03;5.28;;;2.45;;
22435;SDS011;11385;50.822;4.324;2022-08-19T13:02:33;5.17;;;2.25;;
22435;SDS011;11385;50.822;4.324;2022-08-19T13:05:00;3.33;;;2.10;;
22435;SDS011;11385;50.822;4.324;2022-08-19T13:07:27;3.52;;;1.87;;
22435;SDS011;11385;50.822;4.324;2022-08-19T13:09:54;4.42;;;2.17;;
22435;SDS011;11385;50.822;4.324;2022-08-19T13:12:20;5.85;;;2.10;;
22435;SDS011;11385;50.822;4.324;2022-08-19T13:14:49;5.08;;;1.70;;
22435;SDS011;11385;50.822;4.324;2022-08-19T13:17:16;5.37;;;1.50;;
22435;SDS011;11385;50.822;4.324;2022-08-19T13:19:43;4.00;;;2.02;;
22435;SDS011;11385;50.822;4.324;2022-08-19T13:22:09;4.62;;;2.15;;
22435;SDS011;11385;50.822;4.324;2022-08-19T13:24:37;5.70;;;2.10;;
22435;SDS011;11385;50.822;4.324;2022-08-19T13:27:03;4.05;;;1.65;;
22435;SDS011;11385;50.822;4.324;2022-08-19T13:29:30;4.95;;;2.27;;
22435;SDS011;11385;50.822;4.324;2022-08-19T13:32:03;5.15;;;1.95;;
22435;SDS011;11385;50.822;4.324;2022-08-19T13:34:35;4.22;;;1.82;;
22435;SDS011;11385;50.822;4.324;2022-08-19T13:37:02;4.17;;;2.22;;
22435;SDS011;11385;50.822;4.324;2022-08-19T13:39:31;3.80;;;1.70;;
22435;SDS011;11385;50.822;4.324;2022-08-19T13:42:00;3.98;;;1.45;;
22435;SDS011;11385;50.822;4.324;2022-08-19T13:44:29;4.55;;;1.80;;
22435;SDS011;11385;50.822;4.324;2022-08-19T13:47:00;5.22;;;1.75;;
22435;SDS011;11385;50.822;4.324;2022-08-19T13:49:32;4.03;;;1.65;;
22435;SDS011;11385;50.822;4.324;2022-08-19T13:52:02;6.05;;;1.95;;
22435;SDS011;11385;50.822;4.324;2022-08-19T13:54:30;3.40;;;1.82;;
22435;SDS011;11385;50.822;4.324;2022-08-19T13:56:57;3.95;;;1.70;;
22435;SDS011;11385;50.822;4.324;2022-08-19T13:59:23;5.25;;;1.42;;
22435;SDS011;11385;50.822;4.324;2022-08-19T14:01:50;6.95;;;1.90;;
22435;SDS011;11385;50.822;4.324;2022-08-19T14:04:17;3.95;;;1.50;;
22435;SDS011;11385;50.822;4.324;2022-08-19T14:06:43;6.28;;;1.95;;
22435;SDS011;11385;50.822;4.324;2022-08-19T14:09:10;5.10;;;1.87;;
22435;SDS011;11385;50.822;4.324;2022-08-19T14:11:37;3.00;;;1.70;;
22435;SDS011;11385;50.822;4.324;2022-08-19T14:14:03;7.03;;;2.40;;
22435;SDS011;11385;50.822;4.324;2022-08-19T14:16:30;4.42;;;2.12;;
22435;SDS011;11385;50.822;4.324;2022-08-19T14:18:56;6.45;;;1.85;;
22435;SDS011;11385;50.822;4.324;2022-08-19T14:21:23;6.37;;;2.05;;
22435;SDS011;11385;50.822;4.324;2022-08-19T14:23:51;5.72;;;2.10;;
22435;SDS011;11385;50.822;4.324;2022-08-19T14:26:18;5.05;;;2.30;;
22435;SDS011;11385;50.822;4.324;2022-08-19T14:28:46;2.85;;;1.57;;
22435;SDS011;11385;50.822;4.324;2022-08-19T14:31:13;2.45;;;1.20;;
22435;SDS011;11385;50.822;4.324;2022-08-19T14:33:43;3.93;;;1.60;;
22435;SDS011;11385;50.822;4.324;2022-08-19T14:36:11;4.70;;;1.95;;
22435;SDS011;11385;50.822;4.324;2022-08-19T14:38:38;2.92;;;1.85;;
22435;SDS011;11385;50.822;4.324;2022-08-19T14:41:06;2.90;;;1.62;;
22435;SDS011;11385;50.822;4.324;2022-08-19T14:43:36;4.78;;;1.57;;
22435;SDS011;11385;50.822;4.324;2022-08-19T14:46:03;2.20;;;1.20;;
22435;SDS011;11385;50.822;4.324;2022-08-19T14:48:30;2.72;;;1.75;;